sensor_id;sensor_type;location;lat;lon;timestamp;temperature;humidity
66035;HTU21D;52805;51.074;5.842;2023-10-09T00:01:07;17.95;67.74
66035;HTU21D;52805;51.074;5.842;2023-10-09T00:03:46;17.93;67.91
66035;HTU21D;52805;51.074;5.842;2023-10-09T00:06:17;17.90;68.00
66035;HTU21D;52805;51.074;5.842;2023-10-09T00:08:48;17.85;68.26
66035;HTU21D;52805;51.074;5.842;2023-10-09T00:11:19;17.83;68.30
66035;HTU21D;52805;51.074;5.842;2023-10-09T00:13:47;17.82;68.55
66035;HTU21D;52805;51.074;5.842;2023-10-09T00:16:24;17.79;68.73
66035;HTU21D;52805;51.074;5.842;2023-10-09T00:19:10;17.76;68.56
66035;HTU21D;52805;51.074;5.842;2023-10-09T00:21:40;17.74;69.22
66035;HTU21D;52805;51.074;5.842;2023-10-09T00:24:07;17.74;69.18
66035;HTU21D;52805;51.074;5.842;2023-10-09T00:26:45;17.73;69.24
66035;HTU21D;52805;51.074;5.842;2023-10-09T00:29:13;17.73;69.05
66035;HTU21D;52805;51.074;5.842;2023-10-09T00:31:51;17.73;69.16
66035;HTU21D;52805;51.074;5.842;2023-10-09T00:34:21;17.77;68.72
66035;HTU21D;52805;51.074;5.842;2023-10-09T00:36:50;17.75;68.77
66035;HTU21D;52805;51.074;5.842;2023-10-09T00:39:20;17.76;68.52
66035;HTU21D;52805;51.074;5.842;2023-10-09T00:42:06;17.78;68.70
66035;HTU21D;52805;51.074;5.842;2023-10-09T00:44:33;17.78;68.62
66035;HTU21D;52805;51.074;5.842;2023-10-09T00:47:15;17.79;68.63
66035;HTU21D;52805;51.074;5.842;2023-10-09T00:50:02;17.81;68.52
66035;HTU21D;52805;51.074;5.842;2023-10-09T00:52:44;17.80;68.87
66035;HTU21D;52805;51.074;5.842;2023-10-09T00:55:18;17.80;69.07
66035;HTU21D;52805;51.074;5.842;2023-10-09T00:57:55;17.78;69.84
66035;HTU21D;52805;51.074;5.842;2023-10-09T01:00:26;17.81;70.03
66035;HTU21D;52805;51.074;5.842;2023-10-09T01:03:00;17.81;70.59
66035;HTU21D;52805;51.074;5.842;2023-10-09T01:05:49;17.83;70.51
66035;HTU21D;52805;51.074;5.842;2023-10-09T01:08:26;17.82;70.71
66035;HTU21D;52805;51.074;5.842;2023-10-09T01:11:10;17.83;71.02
66035;HTU21D;52805;51.074;5.842;2023-10-09T01:13:37;17.83;71.44
66035;HTU21D;52805;51.074;5.842;2023-10-09T01:16:12;17.83;71.66
66035;HTU21D;52805;51.074;5.842;2023-10-09T01:18:46;17.84;72.03
66035;HTU21D;52805;51.074;5.842;2023-10-09T01:21:16;17.85;72.07
66035;HTU21D;52805;51.074;5.842;2023-10-09T01:23:43;17.85;72.20
66035;HTU21D;52805;51.074;5.842;2023-10-09T01:26:32;17.87;72.38
66035;HTU21D;52805;51.074;5.842;2023-10-09T01:29:17;17.88;72.40
66035;HTU21D;52805;51.074;5.842;2023-10-09T01:31:50;17.85;72.90
66035;HTU21D;52805;51.074;5.842;2023-10-09T01:34:28;17.88;72.87
66035;HTU21D;52805;51.074;5.842;2023-10-09T01:37:13;17.88;73.15
66035;HTU21D;52805;51.074;5.842;2023-10-09T01:39:50;17.88;73.31
66035;HTU21D;52805;51.074;5.842;2023-10-09T01:42:18;17.88;73.44
66035;HTU21D;52805;51.074;5.842;2023-10-09T01:45:00;17.87;73.76
66035;HTU21D;52805;51.074;5.842;2023-10-09T01:47:52;17.87;73.57
66035;HTU21D;52805;51.074;5.842;2023-10-09T01:50:20;17.92;73.48
66035;HTU21D;52805;51.074;5.842;2023-10-09T01:52:48;17.90;73.42
66035;HTU21D;52805;51.074;5.842;2023-10-09T01:55:14;17.92;73.41
66035;HTU21D;52805;51.074;5.842;2023-10-09T01:57:53;17.91;73.78
66035;HTU21D;52805;51.074;5.842;2023-10-09T02:00:19;17.90;74.11
66035;HTU21D;52805;51.074;5.842;2023-10-09T02:02:49;17.90;74.54
66035;HTU21D;52805;51.074;5.842;2023-10-09T02:05:16;17.90;74.35
66035;HTU21D;52805;51.074;5.842;2023-10-09T02:07:51;17.89;74.41
66035;HTU21D;52805;51.074;5.842;2023-10-09T02:10:20;17.89;74.18
66035;HTU21D;52805;51.074;5.842;2023-10-09T02:12:53;17.88;74.47
66035;HTU21D;52805;51.074;5.842;2023-10-09T02:15:30;17.84;74.73
66035;HTU21D;52805;51.074;5.842;2023-10-09T02:18:15;17.84;74.54
66035;HTU21D;52805;51.074;5.842;2023-10-09T02:21:06;17.84;74.61
66035;HTU21D;52805;51.074;5.842;2023-10-09T02:23:35;17.82;75.03
66035;HTU21D;52805;51.074;5.842;2023-10-09T02:26:13;17.83;74.74
66035;HTU21D;52805;51.074;5.842;2023-10-09T02:28:45;17.83;74.73
66035;HTU21D;52805;51.074;5.842;2023-10-09T02:31:25;17.82;74.71
66035;HTU21D;52805;51.074;5.842;2023-10-09T02:33:53;17.85;75.10
66035;HTU21D;52805;51.074;5.842;2023-10-09T02:36:22;17.82;75.10
66035;HTU21D;52805;51.074;5.842;2023-10-09T02:38:47;17.82;75.21
66035;HTU21D;52805;51.074;5.842;2023-10-09T02:41:15;17.82;75.21
66035;HTU21D;52805;51.074;5.842;2023-10-09T02:43:41;17.83;75.21
66035;HTU21D;52805;51.074;5.842;2023-10-09T02:46:17;17.82;75.55
66035;HTU21D;52805;51.074;5.842;2023-10-09T02:48:50;17.83;75.33
66035;HTU21D;52805;51.074;5.842;2023-10-09T02:51:19;17.81;75.35
66035;HTU21D;52805;51.074;5.842;2023-10-09T02:53:54;17.84;75.15
66035;HTU21D;52805;51.074;5.842;2023-10-09T02:56:22;17.83;75.12
66035;HTU21D;52805;51.074;5.842;2023-10-09T02:59:01;17.84;74.96
66035;HTU21D;52805;51.074;5.842;2023-10-09T03:01:31;17.85;74.92
66035;HTU21D;52805;51.074;5.842;2023-10-09T03:04:00;17.84;74.50
66035;HTU21D;52805;51.074;5.842;2023-10-09T03:06:28;17.85;74.22
66035;HTU21D;52805;51.074;5.842;2023-10-09T03:08:57;17.83;74.16
66035;HTU21D;52805;51.074;5.842;2023-10-09T03:11:22;17.83;74.41
66035;HTU21D;52805;51.074;5.842;2023-10-09T03:13:49;17.82;74.26
66035;HTU21D;52805;51.074;5.842;2023-10-09T03:16:16;17.83;74.32
66035;HTU21D;52805;51.074;5.842;2023-10-09T03:18:46;17.81;74.26
66035;HTU21D;52805;51.074;5.842;2023-10-09T03:21:13;17.80;74.17
66035;HTU21D;52805;51.074;5.842;2023-10-09T03:23:44;17.79;73.92
66035;HTU21D;52805;51.074;5.842;2023-10-09T03:26:10;17.80;73.73
66035;HTU21D;52805;51.074;5.842;2023-10-09T03:28:36;17.80;73.98
66035;HTU21D;52805;51.074;5.842;2023-10-09T03:31:02;17.78;73.90
66035;HTU21D;52805;51.074;5.842;2023-10-09T03:33:31;17.77;73.86
66035;HTU21D;52805;51.074;5.842;2023-10-09T03:36:01;17.77;74.03
66035;HTU21D;52805;51.074;5.842;2023-10-09T03:38:27;17.79;73.65
66035;HTU21D;52805;51.074;5.842;2023-10-09T03:41:02;17.78;73.68
66035;HTU21D;52805;51.074;5.842;2023-10-09T03:43:37;17.79;73.48
66035;HTU21D;52805;51.074;5.842;2023-10-09T03:46:11;17.79;73.50
66035;HTU21D;52805;51.074;5.842;2023-10-09T03:49:06;17.79;73.43
66035;HTU21D;52805;51.074;5.842;2023-10-09T03:51:36;17.78;73.64
66035;HTU21D;52805;51.074;5.842;2023-10-09T03:54:02;17.80;73.54
66035;HTU21D;52805;51.074;5.842;2023-10-09T03:56:33;17.80;73.54
66035;HTU21D;52805;51.074;5.842;2023-10-09T03:59:00;17.81;73.41
66035;HTU21D;52805;51.074;5.842;2023-10-09T04:01:27;17.80;73.44
66035;HTU21D;52805;51.074;5.842;2023-10-09T04:04:04;17.81;73.22
66035;HTU21D;52805;51.074;5.842;2023-10-09T04:06:33;17.80;73.08
66035;HTU21D;52805;51.074;5.842;2023-10-09T04:09:01;17.81;72.90
66035;HTU21D;52805;51.074;5.842;2023-10-09T04:11:39;17.82;72.71
66035;HTU21D;52805;51.074;5.842;2023-10-09T04:14:09;17.80;72.70
66035;HTU21D;52805;51.074;5.842;2023-10-09T04:16:47;17.78;72.67
66035;HTU21D;52805;51.074;5.842;2023-10-09T04:19:30;17.78;72.77
66035;HTU21D;52805;51.074;5.842;2023-10-09T04:22:04;17.76;72.89
66035;HTU21D;52805;51.074;5.842;2023-10-09T04:24:33;17.77;72.98
66035;HTU21D;52805;51.074;5.842;2023-10-09T04:27:17;17.77;72.85
66035;HTU21D;52805;51.074;5.842;2023-10-09T04:29:44;17.77;72.74
66035;HTU21D;52805;51.074;5.842;2023-10-09T04:32:15;17.77;72.48
66035;HTU21D;52805;51.074;5.842;2023-10-09T04:34:44;17.80;72.64
66035;HTU21D;52805;51.074;5.842;2023-10-09T04:37:22;17.80;71.74
66035;HTU21D;52805;51.074;5.842;2023-10-09T04:40:04;17.76;72.32
66035;HTU21D;52805;51.074;5.842;2023-10-09T04:42:59;17.75;72.57
66035;HTU21D;52805;51.074;5.842;2023-10-09T04:45:25;17.76;72.30
66035;HTU21D;52805;51.074;5.842;2023-10-09T04:48:11;17.76;71.74
66035;HTU21D;52805;51.074;5.842;2023-10-09T04:50:37;17.76;71.89
66035;HTU21D;52805;51.074;5.842;2023-10-09T04:53:14;17.75;71.76
66035;HTU21D;52805;51.074;5.842;2023-10-09T04:55:40;17.75;72.13
66035;HTU21D;52805;51.074;5.842;2023-10-09T04:58:10;17.73;72.09
66035;HTU21D;52805;51.074;5.842;2023-10-09T05:00:49;17.73;72.33
66035;HTU21D;52805;51.074;5.842;2023-10-09T05:03:30;17.72;72.56
66035;HTU21D;52805;51.074;5.842;2023-10-09T05:06:15;17.72;72.38
66035;HTU21D;52805;51.074;5.842;2023-10-09T05:08:58;17.69;72.58
66035;HTU21D;52805;51.074;5.842;2023-10-09T05:11:34;17.70;72.70
66035;HTU21D;52805;51.074;5.842;2023-10-09T05:14:19;17.72;72.66
66035;HTU21D;52805;51.074;5.842;2023-10-09T05:16:53;17.70;72.38
66035;HTU21D;52805;51.074;5.842;2023-10-09T05:19:22;17.73;72.45
66035;HTU21D;52805;51.074;5.842;2023-10-09T05:21:59;17.72;72.48
66035;HTU21D;52805;51.074;5.842;2023-10-09T05:24:35;17.68;72.76
66035;HTU21D;52805;51.074;5.842;2023-10-09T05:27:12;17.69;72.59
66035;HTU21D;52805;51.074;5.842;2023-10-09T05:29:44;17.70;72.83
66035;HTU21D;52805;51.074;5.842;2023-10-09T05:32:39;17.67;72.60
66035;HTU21D;52805;51.074;5.842;2023-10-09T05:35:14;17.68;72.78
66035;HTU21D;52805;51.074;5.842;2023-10-09T05:37:41;17.66;72.67
66035;HTU21D;52805;51.074;5.842;2023-10-09T05:40:12;17.65;73.01
66035;HTU21D;52805;51.074;5.842;2023-10-09T05:42:41;17.66;73.02
66035;HTU21D;52805;51.074;5.842;2023-10-09T05:45:17;17.64;73.13
66035;HTU21D;52805;51.074;5.842;2023-10-09T05:47:53;17.63;73.18
66035;HTU21D;52805;51.074;5.842;2023-10-09T05:50:26;17.66;73.02
66035;HTU21D;52805;51.074;5.842;2023-10-09T05:52:53;17.67;73.19
66035;HTU21D;52805;51.074;5.842;2023-10-09T05:55:19;17.66;72.90
66035;HTU21D;52805;51.074;5.842;2023-10-09T05:57:56;17.67;72.85
66035;HTU21D;52805;51.074;5.842;2023-10-09T06:00:35;17.68;72.64
66035;HTU21D;52805;51.074;5.842;2023-10-09T06:03:19;17.70;72.54
66035;HTU21D;52805;51.074;5.842;2023-10-09T06:05:55;17.75;72.22
66035;HTU21D;52805;51.074;5.842;2023-10-09T06:08:22;17.73;71.54
66035;HTU21D;52805;51.074;5.842;2023-10-09T06:13:55;17.74;71.91
66035;HTU21D;52805;51.074;5.842;2023-10-09T06:16:41;17.78;71.22
66035;HTU21D;52805;51.074;5.842;2023-10-09T06:19:08;17.78;71.39
66035;HTU21D;52805;51.074;5.842;2023-10-09T06:21:41;17.79;71.66
66035;HTU21D;52805;51.074;5.842;2023-10-09T06:24:19;17.80;71.77
66035;HTU21D;52805;51.074;5.842;2023-10-09T06:26:46;17.84;71.16
66035;HTU21D;52805;51.074;5.842;2023-10-09T06:29:18;17.85;70.65
66035;HTU21D;52805;51.074;5.842;2023-10-09T06:32:07;17.87;70.74
66035;HTU21D;52805;51.074;5.842;2023-10-09T06:34:57;17.89;70.55
66035;HTU21D;52805;51.074;5.842;2023-10-09T06:38:08;17.91;70.45
66035;HTU21D;52805;51.074;5.842;2023-10-09T06:40:49;17.91;70.64
66035;HTU21D;52805;51.074;5.842;2023-10-09T06:43:21;17.91;70.80
66035;HTU21D;52805;51.074;5.842;2023-10-09T06:45:50;17.92;70.71
66035;HTU21D;52805;51.074;5.842;2023-10-09T06:48:34;17.91;71.03
66035;HTU21D;52805;51.074;5.842;2023-10-09T06:51:07;17.93;71.04
66035;HTU21D;52805;51.074;5.842;2023-10-09T06:53:43;17.95;70.93
66035;HTU21D;52805;51.074;5.842;2023-10-09T06:56:25;17.96;70.74
66035;HTU21D;52805;51.074;5.842;2023-10-09T06:59:11;17.97;70.68
66035;HTU21D;52805;51.074;5.842;2023-10-09T07:01:51;17.96;70.99
66035;HTU21D;52805;51.074;5.842;2023-10-09T07:04:52;17.98;70.96
66035;HTU21D;52805;51.074;5.842;2023-10-09T07:07:20;17.99;70.87
66035;HTU21D;52805;51.074;5.842;2023-10-09T07:09:50;18.00;70.56
66035;HTU21D;52805;51.074;5.842;2023-10-09T07:12:35;18.05;70.07
66035;HTU21D;52805;51.074;5.842;2023-10-09T07:15:08;18.02;69.97
66035;HTU21D;52805;51.074;5.842;2023-10-09T07:17:37;18.05;69.74
66035;HTU21D;52805;51.074;5.842;2023-10-09T07:20:03;18.07;69.13
66035;HTU21D;52805;51.074;5.842;2023-10-09T07:23:01;18.07;69.13
66035;HTU21D;52805;51.074;5.842;2023-10-09T07:25:47;18.12;68.71
66035;HTU21D;52805;51.074;5.842;2023-10-09T07:28:24;18.12;68.46
66035;HTU21D;52805;51.074;5.842;2023-10-09T07:31:03;18.11;68.73
66035;HTU21D;52805;51.074;5.842;2023-10-09T07:33:28;18.14;68.53
66035;HTU21D;52805;51.074;5.842;2023-10-09T07:36:18;18.20;68.13
66035;HTU21D;52805;51.074;5.842;2023-10-09T07:39:03;18.19;67.86
66035;HTU21D;52805;51.074;5.842;2023-10-09T07:41:38;18.20;67.93
66035;HTU21D;52805;51.074;5.842;2023-10-09T07:44:10;18.22;67.43
66035;HTU21D;52805;51.074;5.842;2023-10-09T07:46:45;18.27;66.99
66035;HTU21D;52805;51.074;5.842;2023-10-09T07:49:39;18.28;66.88
66035;HTU21D;52805;51.074;5.842;2023-10-09T07:52:05;18.34;66.53
66035;HTU21D;52805;51.074;5.842;2023-10-09T07:54:32;18.37;66.11
66035;HTU21D;52805;51.074;5.842;2023-10-09T07:56:59;18.43;65.96
66035;HTU21D;52805;51.074;5.842;2023-10-09T07:59:37;18.52;65.63
66035;HTU21D;52805;51.074;5.842;2023-10-09T08:02:07;18.62;64.45
66035;HTU21D;52805;51.074;5.842;2023-10-09T08:04:40;18.65;63.92
66035;HTU21D;52805;51.074;5.842;2023-10-09T08:07:16;18.66;63.60
66035;HTU21D;52805;51.074;5.842;2023-10-09T08:09:48;18.67;62.99
66035;HTU21D;52805;51.074;5.842;2023-10-09T08:12:14;18.62;62.76
66035;HTU21D;52805;51.074;5.842;2023-10-09T08:15:05;18.58;62.83
66035;HTU21D;52805;51.074;5.842;2023-10-09T08:17:52;18.54;62.53
66035;HTU21D;52805;51.074;5.842;2023-10-09T08:20:36;18.52;62.80
66035;HTU21D;52805;51.074;5.842;2023-10-09T08:23:21;18.56;62.63
66035;HTU21D;52805;51.074;5.842;2023-10-09T08:26:10;18.54;62.57
66035;HTU21D;52805;51.074;5.842;2023-10-09T08:28:39;18.62;62.34
66035;HTU21D;52805;51.074;5.842;2023-10-09T08:31:15;18.64;62.60
66035;HTU21D;52805;51.074;5.842;2023-10-09T08:33:46;18.76;62.53
66035;HTU21D;52805;51.074;5.842;2023-10-09T08:36:24;18.82;61.88
66035;HTU21D;52805;51.074;5.842;2023-10-09T08:38:56;18.87;61.52
66035;HTU21D;52805;51.074;5.842;2023-10-09T08:41:33;18.98;60.60
66035;HTU21D;52805;51.074;5.842;2023-10-09T08:44:01;18.94;60.67
66035;HTU21D;52805;51.074;5.842;2023-10-09T08:46:29;18.99;60.98
66035;HTU21D;52805;51.074;5.842;2023-10-09T08:48:57;19.07;60.31
66035;HTU21D;52805;51.074;5.842;2023-10-09T08:51:26;19.09;59.78
66035;HTU21D;52805;51.074;5.842;2023-10-09T08:53:53;19.12;59.34
66035;HTU21D;52805;51.074;5.842;2023-10-09T08:56:20;19.16;59.09
66035;HTU21D;52805;51.074;5.842;2023-10-09T08:58:55;19.21;59.34
66035;HTU21D;52805;51.074;5.842;2023-10-09T09:01:21;19.28;58.00
66035;HTU21D;52805;51.074;5.842;2023-10-09T09:03:48;19.33;57.87
66035;HTU21D;52805;51.074;5.842;2023-10-09T09:06:17;19.37;57.45
66035;HTU21D;52805;51.074;5.842;2023-10-09T09:08:45;19.39;57.93
66035;HTU21D;52805;51.074;5.842;2023-10-09T09:14:04;19.52;57.26
66035;HTU21D;52805;51.074;5.842;2023-10-09T09:16:32;19.58;57.56
66035;HTU21D;52805;51.074;5.842;2023-10-09T09:19:03;19.71;57.70
66035;HTU21D;52805;51.074;5.842;2023-10-09T09:21:33;19.79;56.77
66035;HTU21D;52805;51.074;5.842;2023-10-09T09:24:11;19.91;56.05
66035;HTU21D;52805;51.074;5.842;2023-10-09T09:27:03;20.00;55.07
66035;HTU21D;52805;51.074;5.842;2023-10-09T09:32:02;20.19;54.23
66035;HTU21D;52805;51.074;5.842;2023-10-09T09:34:53;20.29;53.10
66035;HTU21D;52805;51.074;5.842;2023-10-09T09:37:31;20.37;52.40
66035;HTU21D;52805;51.074;5.842;2023-10-09T09:40:16;20.46;51.78
66035;HTU21D;52805;51.074;5.842;2023-10-09T09:42:57;20.55;51.62
66035;HTU21D;52805;51.074;5.842;2023-10-09T09:45:35;20.64;50.72
66035;HTU21D;52805;51.074;5.842;2023-10-09T09:48:03;20.68;50.04
66035;HTU21D;52805;51.074;5.842;2023-10-09T09:50:35;20.72;49.20
66035;HTU21D;52805;51.074;5.842;2023-10-09T09:53:13;20.74;49.47
66035;HTU21D;52805;51.074;5.842;2023-10-09T09:55:53;20.81;48.79
66035;HTU21D;52805;51.074;5.842;2023-10-09T09:58:26;20.84;48.57
66035;HTU21D;52805;51.074;5.842;2023-10-09T10:01:05;20.89;47.55
66035;HTU21D;52805;51.074;5.842;2023-10-09T10:03:47;20.90;47.37
66035;HTU21D;52805;51.074;5.842;2023-10-09T10:06:19;20.94;46.35
66035;HTU21D;52805;51.074;5.842;2023-10-09T10:08:47;20.94;46.29
66035;HTU21D;52805;51.074;5.842;2023-10-09T10:14:13;20.99;46.13
66035;HTU21D;52805;51.074;5.842;2023-10-09T10:22:28;21.10;44.53
66035;HTU21D;52805;51.074;5.842;2023-10-09T10:24:58;21.10;43.99
66035;HTU21D;52805;51.074;5.842;2023-10-09T10:27:28;21.14;44.07
66035;HTU21D;52805;51.074;5.842;2023-10-09T10:33:01;21.27;42.29
66035;HTU21D;52805;51.074;5.842;2023-10-09T10:35:38;21.31;41.88
66035;HTU21D;52805;51.074;5.842;2023-10-09T10:38:29;21.33;41.25
66035;HTU21D;52805;51.074;5.842;2023-10-09T10:41:16;21.36;40.82
66035;HTU21D;52805;51.074;5.842;2023-10-09T10:43:46;21.39;41.05
66035;HTU21D;52805;51.074;5.842;2023-10-09T10:46:19;21.44;40.96
66035;HTU21D;52805;51.074;5.842;2023-10-09T10:49:05;21.51;40.82
66035;HTU21D;52805;51.074;5.842;2023-10-09T10:51:41;21.55;40.94
66035;HTU21D;52805;51.074;5.842;2023-10-09T10:54:23;21.64;40.86
66035;HTU21D;52805;51.074;5.842;2023-10-09T10:56:59;21.69;40.56
66035;HTU21D;52805;51.074;5.842;2023-10-09T10:59:29;21.74;40.68
66035;HTU21D;52805;51.074;5.842;2023-10-09T11:01:59;21.81;40.40
66035;HTU21D;52805;51.074;5.842;2023-10-09T11:04:29;21.85;39.78
66035;HTU21D;52805;51.074;5.842;2023-10-09T11:06:55;21.91;39.69
66035;HTU21D;52805;51.074;5.842;2023-10-09T11:09:48;22.01;39.31
66035;HTU21D;52805;51.074;5.842;2023-10-09T11:12:44;22.07;39.60
66035;HTU21D;52805;51.074;5.842;2023-10-09T11:15:13;22.14;39.04
66035;HTU21D;52805;51.074;5.842;2023-10-09T11:18:20;22.19;38.24
66035;HTU21D;52805;51.074;5.842;2023-10-09T11:20:56;22.25;37.53
66035;HTU21D;52805;51.074;5.842;2023-10-09T11:23:32;22.27;36.60
66035;HTU21D;52805;51.074;5.842;2023-10-09T11:26:04;22.24;35.93
66035;HTU21D;52805;51.074;5.842;2023-10-09T11:29:13;22.26;36.30
66035;HTU21D;52805;51.074;5.842;2023-10-09T11:31:41;22.32;36.44
66035;HTU21D;52805;51.074;5.842;2023-10-09T11:34:20;22.37;35.66
66035;HTU21D;52805;51.074;5.842;2023-10-09T11:36:56;22.42;35.86
66035;HTU21D;52805;51.074;5.842;2023-10-09T11:39:26;22.46;35.98
66035;HTU21D;52805;51.074;5.842;2023-10-09T11:42:18;22.51;35.73
66035;HTU21D;52805;51.074;5.842;2023-10-09T11:45:06;22.52;35.63
66035;HTU21D;52805;51.074;5.842;2023-10-09T11:47:54;22.51;35.25
66035;HTU21D;52805;51.074;5.842;2023-10-09T11:50:40;22.52;35.50
66035;HTU21D;52805;51.074;5.842;2023-10-09T11:53:15;22.56;35.98
66035;HTU21D;52805;51.074;5.842;2023-10-09T11:55:51;22.61;35.85
66035;HTU21D;52805;51.074;5.842;2023-10-09T11:58:19;22.62;35.90
66035;HTU21D;52805;51.074;5.842;2023-10-09T12:00:56;22.66;35.40
66035;HTU21D;52805;51.074;5.842;2023-10-09T12:03:32;22.71;34.70
66035;HTU21D;52805;51.074;5.842;2023-10-09T12:06:00;22.73;34.82
66035;HTU21D;52805;51.074;5.842;2023-10-09T12:08:49;22.76;34.59
66035;HTU21D;52805;51.074;5.842;2023-10-09T12:11:16;22.75;34.45
66035;HTU21D;52805;51.074;5.842;2023-10-09T12:13:51;22.78;34.47
66035;HTU21D;52805;51.074;5.842;2023-10-09T12:16:24;22.78;34.12
66035;HTU21D;52805;51.074;5.842;2023-10-09T12:18:54;22.80;33.92
66035;HTU21D;52805;51.074;5.842;2023-10-09T12:21:24;22.79;34.21
66035;HTU21D;52805;51.074;5.842;2023-10-09T12:23:49;22.81;34.27
66035;HTU21D;52805;51.074;5.842;2023-10-09T12:26:15;22.82;34.21
66035;HTU21D;52805;51.074;5.842;2023-10-09T12:28:41;22.83;34.39
66035;HTU21D;52805;51.074;5.842;2023-10-09T12:31:14;22.87;34.58
66035;HTU21D;52805;51.074;5.842;2023-10-09T12:33:41;22.92;34.19
66035;HTU21D;52805;51.074;5.842;2023-10-09T12:36:13;22.92;33.91
66035;HTU21D;52805;51.074;5.842;2023-10-09T12:38:47;22.86;34.09
66035;HTU21D;52805;51.074;5.842;2023-10-09T12:41:18;22.85;34.17
66035;HTU21D;52805;51.074;5.842;2023-10-09T12:43:46;22.86;33.71
66035;HTU21D;52805;51.074;5.842;2023-10-09T12:46:12;22.83;33.89
66035;HTU21D;52805;51.074;5.842;2023-10-09T12:48:44;22.82;34.31
66035;HTU21D;52805;51.074;5.842;2023-10-09T12:51:13;22.84;33.61
66035;HTU21D;52805;51.074;5.842;2023-10-09T12:53:46;22.81;33.92
66035;HTU21D;52805;51.074;5.842;2023-10-09T12:56:23;22.79;33.54
66035;HTU21D;52805;51.074;5.842;2023-10-09T12:59:01;22.80;33.44
66035;HTU21D;52805;51.074;5.842;2023-10-09T13:01:30;22.77;33.43
66035;HTU21D;52805;51.074;5.842;2023-10-09T13:04:12;22.69;33.29
66035;HTU21D;52805;51.074;5.842;2023-10-09T13:06:41;22.66;33.24
66035;HTU21D;52805;51.074;5.842;2023-10-09T13:09:12;22.63;33.57
66035;HTU21D;52805;51.074;5.842;2023-10-09T13:11:39;22.64;33.63
66035;HTU21D;52805;51.074;5.842;2023-10-09T13:14:06;22.58;34.08
66035;HTU21D;52805;51.074;5.842;2023-10-09T13:16:48;22.56;34.51
66035;HTU21D;52805;51.074;5.842;2023-10-09T13:19:16;22.57;34.80
66035;HTU21D;52805;51.074;5.842;2023-10-09T13:21:43;22.57;35.01
66035;HTU21D;52805;51.074;5.842;2023-10-09T13:24:09;22.56;35.08
66035;HTU21D;52805;51.074;5.842;2023-10-09T13:26:39;22.53;35.24
66035;HTU21D;52805;51.074;5.842;2023-10-09T13:29:07;22.53;35.38
66035;HTU21D;52805;51.074;5.842;2023-10-09T13:31:38;22.52;35.44
66035;HTU21D;52805;51.074;5.842;2023-10-09T13:34:06;22.54;35.37
66035;HTU21D;52805;51.074;5.842;2023-10-09T13:36:35;22.55;35.37
66035;HTU21D;52805;51.074;5.842;2023-10-09T13:39:03;22.56;35.30
66035;HTU21D;52805;51.074;5.842;2023-10-09T13:41:49;22.61;35.46
66035;HTU21D;52805;51.074;5.842;2023-10-09T13:44:15;22.66;35.18
66035;HTU21D;52805;51.074;5.842;2023-10-09T13:46:41;22.65;35.68
66035;HTU21D;52805;51.074;5.842;2023-10-09T13:49:11;22.70;35.67
66035;HTU21D;52805;51.074;5.842;2023-10-09T13:51:41;22.73;35.71
66035;HTU21D;52805;51.074;5.842;2023-10-09T13:54:13;22.78;35.40
66035;HTU21D;52805;51.074;5.842;2023-10-09T13:56:48;22.79;34.79
66035;HTU21D;52805;51.074;5.842;2023-10-09T13:59:14;22.77;35.23
66035;HTU21D;52805;51.074;5.842;2023-10-09T14:01:42;22.76;35.10
66035;HTU21D;52805;51.074;5.842;2023-10-09T14:04:13;22.76;35.16
66035;HTU21D;52805;51.074;5.842;2023-10-09T14:06:44;22.71;35.11
66035;HTU21D;52805;51.074;5.842;2023-10-09T14:09:10;22.69;35.06
66035;HTU21D;52805;51.074;5.842;2023-10-09T14:11:37;22.69;35.25
66035;HTU21D;52805;51.074;5.842;2023-10-09T14:14:09;22.65;35.48
66035;HTU21D;52805;51.074;5.842;2023-10-09T14:16:37;22.64;35.21
66035;HTU21D;52805;51.074;5.842;2023-10-09T14:19:03;22.65;35.11
66035;HTU21D;52805;51.074;5.842;2023-10-09T14:21:33;22.64;34.89
66035;HTU21D;52805;51.074;5.842;2023-10-09T14:24:04;22.63;34.88
66035;HTU21D;52805;51.074;5.842;2023-10-09T14:26:44;22.63;35.44
66035;HTU21D;52805;51.074;5.842;2023-10-09T14:29:14;22.63;35.38
66035;HTU21D;52805;51.074;5.842;2023-10-09T14:31:43;22.64;35.50
66035;HTU21D;52805;51.074;5.842;2023-10-09T14:34:09;22.69;35.36
66035;HTU21D;52805;51.074;5.842;2023-10-09T14:36:35;22.71;35.09
66035;HTU21D;52805;51.074;5.842;2023-10-09T14:39:01;22.70;34.74
66035;HTU21D;52805;51.074;5.842;2023-10-09T14:41:27;22.70;34.95
66035;HTU21D;52805;51.074;5.842;2023-10-09T14:43:54;22.66;34.87
66035;HTU21D;52805;51.074;5.842;2023-10-09T14:46:20;22.63;34.52
66035;HTU21D;52805;51.074;5.842;2023-10-09T14:48:51;22.57;34.66
66035;HTU21D;52805;51.074;5.842;2023-10-09T14:51:19;22.56;35.03
66035;HTU21D;52805;51.074;5.842;2023-10-09T14:53:56;22.60;35.09
66035;HTU21D;52805;51.074;5.842;2023-10-09T14:56:30;22.68;35.07
66035;HTU21D;52805;51.074;5.842;2023-10-09T14:59:00;22.68;35.34
66035;HTU21D;52805;51.074;5.842;2023-10-09T15:01:26;22.71;35.21
66035;HTU21D;52805;51.074;5.842;2023-10-09T15:03:57;22.66;35.05
66035;HTU21D;52805;51.074;5.842;2023-10-09T15:06:27;22.67;34.88
66035;HTU21D;52805;51.074;5.842;2023-10-09T15:08:54;22.69;34.56
66035;HTU21D;52805;51.074;5.842;2023-10-09T15:11:27;22.73;34.89
66035;HTU21D;52805;51.074;5.842;2023-10-09T15:13:55;22.75;34.31
66035;HTU21D;52805;51.074;5.842;2023-10-09T15:16:24;22.70;34.04
66035;HTU21D;52805;51.074;5.842;2023-10-09T15:18:54;22.64;33.88
66035;HTU21D;52805;51.074;5.842;2023-10-09T15:21:20;22.53;34.12
66035;HTU21D;52805;51.074;5.842;2023-10-09T15:23:55;22.42;34.49
66035;HTU21D;52805;51.074;5.842;2023-10-09T15:26:23;22.33;34.80
66035;HTU21D;52805;51.074;5.842;2023-10-09T15:29:00;22.26;35.17
66035;HTU21D;52805;51.074;5.842;2023-10-09T15:31:26;22.23;35.46
66035;HTU21D;52805;51.074;5.842;2023-10-09T15:33:52;22.20;35.74
66035;HTU21D;52805;51.074;5.842;2023-10-09T15:36:19;22.18;35.85
66035;HTU21D;52805;51.074;5.842;2023-10-09T15:38:50;22.16;35.89
66035;HTU21D;52805;51.074;5.842;2023-10-09T15:41:17;22.12;35.97
66035;HTU21D;52805;51.074;5.842;2023-10-09T15:43:44;22.12;36.14
66035;HTU21D;52805;51.074;5.842;2023-10-09T15:46:14;22.16;36.17
66035;HTU21D;52805;51.074;5.842;2023-10-09T15:48:41;22.18;36.29
66035;HTU21D;52805;51.074;5.842;2023-10-09T15:51:12;22.17;36.21
66035;HTU21D;52805;51.074;5.842;2023-10-09T15:53:44;22.14;36.01
66035;HTU21D;52805;51.074;5.842;2023-10-09T15:56:11;22.14;36.06
66035;HTU21D;52805;51.074;5.842;2023-10-09T15:58:41;22.13;36.22
66035;HTU21D;52805;51.074;5.842;2023-10-09T16:01:16;22.18;36.26
66035;HTU21D;52805;51.074;5.842;2023-10-09T16:03:46;22.19;36.11
66035;HTU21D;52805;51.074;5.842;2023-10-09T16:06:17;22.23;35.76
66035;HTU21D;52805;51.074;5.842;2023-10-09T16:08:45;22.17;35.89
66035;HTU21D;52805;51.074;5.842;2023-10-09T16:11:19;22.16;35.92
66035;HTU21D;52805;51.074;5.842;2023-10-09T16:13:45;22.11;36.09
66035;HTU21D;52805;51.074;5.842;2023-10-09T16:16:10;22.07;36.48